sensor_id;sensor_type;location;lat;lon;timestamp;pressure;altitude;pressure_sealevel;temperature;humidity
42601;BME280;28229;48.856;9.088;2023-08-30T00:00:22;97357.88;;;12.89;100.00
42601;BME280;28229;48.856;9.088;2023-08-30T00:02:48;97357.31;;;12.87;100.00
42601;BME280;28229;48.856;9.088;2023-08-30T00:05:14;97356.19;;;12.83;100.00
42601;BME280;28229;48.856;9.088;2023-08-30T00:07:40;97355.16;;;12.84;100.00
42601;BME280;28229;48.856;9.088;2023-08-30T00:10:07;97358.53;;;12.80;100.00
42601;BME280;28229;48.856;9.088;2023-08-30T00:12:34;97353.56;;;12.83;100.00
42601;BME280;28229;48.856;9.088;2023-08-30T00:15:00;97352.44;;;12.79;100.00
42601;BME280;28229;48.856;9.088;2023-08-30T00:17:26;97355.88;;;12.80;100.00
42601;BME280;28229;48.856;9.088;2023-08-30T00:19:52;97352.69;;;12.77;100.00
42601;BME280;28229;48.856;9.088;2023-08-30T00:22:21;97349.09;;;12.84;100.00
42601;BME280;28229;48.856;9.088;2023-08-30T00:24:47;97343.50;;;12.80;100.00
42601;BME280;28229;48.856;9.088;2023-08-30T00:27:13;97344.47;;;12.74;100.00
42601;BME280;28229;48.856;9.088;2023-08-30T00:29:39;97341.34;;;12.77;100.00
42601;BME280;28229;48.856;9.088;2023-08-30T00:32:06;97343.44;;;12.75;100.00
42601;BME280;28229;48.856;9.088;2023-08-30T00:34:34;97341.91;;;12.79;100.00
42601;BME280;28229;48.856;9.088;2023-08-30T00:37:00;97336.84;;;12.77;100.00
42601;BME280;28229;48.856;9.088;2023-08-30T00:39:27;97334.22;;;12.77;100.00
42601;BME280;28229;48.856;9.088;2023-08-30T00:41:53;97323.66;;;12.77;100.00
42601;BME280;28229;48.856;9.088;2023-08-30T00:44:19;97328.47;;;12.81;100.00
42601;BME280;28229;48.856;9.088;2023-08-30T00:46:45;97323.25;;;12.86;100.00
42601;BME280;28229;48.856;9.088;2023-08-30T00:49:12;97315.56;;;12.84;100.00
42601;BME280;28229;48.856;9.088;2023-08-30T00:51:39;97320.00;;;12.79;100.00
42601;BME280;28229;48.856;9.088;2023-08-30T00:54:05;97323.53;;;12.89;100.00
42601;BME280;28229;48.856;9.088;2023-08-30T00:56:32;97320.41;;;12.92;100.00
42601;BME280;28229;48.856;9.088;2023-08-30T00:58:59;97317.06;;;12.75;100.00
42601;BME280;28229;48.856;9.088;2023-08-30T01:01:26;97310.72;;;12.76;100.00
42601;BME280;28229;48.856;9.088;2023-08-30T01:03:52;97313.41;;;12.81;100.00
42601;BME280;28229;48.856;9.088;2023-08-30T01:06:20;97323.00;;;12.87;100.00
42601;BME280;28229;48.856;9.088;2023-08-30T01:08:46;97320.91;;;12.89;100.00
42601;BME280;28229;48.856;9.088;2023-08-30T01:12:00;97306.84;;;12.84;100.00
42601;BME280;28229;48.856;9.088;2023-08-30T01:14:39;97303.38;;;12.78;100.00
42601;BME280;28229;48.856;9.088;2023-08-30T01:17:07;97307.34;;;12.81;100.00
42601;BME280;28229;48.856;9.088;2023-08-30T01:19:48;97306.03;;;12.83;100.00
42601;BME280;28229;48.856;9.088;2023-08-30T01:25:19;97311.72;;;12.70;100.00
42601;BME280;28229;48.856;9.088;2023-08-30T01:27:51;97309.00;;;12.65;100.00
42601;BME280;28229;48.856;9.088;2023-08-30T01:30:19;97306.38;;;12.65;100.00
42601;BME280;28229;48.856;9.088;2023-08-30T01:32:46;97303.66;;;12.60;100.00
42601;BME280;28229;48.856;9.088;2023-08-30T01:35:13;97302.63;;;12.61;100.00
42601;BME280;28229;48.856;9.088;2023-08-30T01:37:46;97303.91;;;12.58;100.00
42601;BME280;28229;48.856;9.088;2023-08-30T01:40:13;97308.56;;;12.51;100.00
42601;BME280;28229;48.856;9.088;2023-08-30T01:42:42;97302.44;;;12.45;100.00
42601;BME280;28229;48.856;9.088;2023-08-30T01:45:11;97302.44;;;12.45;100.00
42601;BME280;28229;48.856;9.088;2023-08-30T01:47:44;97308.25;;;12.47;100.00
42601;BME280;28229;48.856;9.088;2023-08-30T01:50:11;97312.91;;;12.40;100.00
42601;BME280;28229;48.856;9.088;2023-08-30T01:52:38;97316.91;;;12.43;100.00
42601;BME280;28229;48.856;9.088;2023-08-30T01:55:07;97306.38;;;12.43;100.00
42601;BME280;28229;48.856;9.088;2023-08-30T01:57:34;97309.72;;;12.38;100.00
42601;BME280;28229;48.856;9.088;2023-08-30T02:00:00;97312.84;;;12.35;100.00
42601;BME280;28229;48.856;9.088;2023-08-30T02:02:30;97318.00;;;12.25;100.00
42601;BME280;28229;48.856;9.088;2023-08-30T02:04:56;97310.88;;;12.25;100.00
42601;BME280;28229;48.856;9.088;2023-08-30T02:07:57;97311.84;;;12.19;100.00
42601;BME280;28229;48.856;9.088;2023-08-30T02:10:28;97309.31;;;12.07;100.00
42601;BME280;28229;48.856;9.088;2023-08-30T02:12:59;97310.25;;;12.01;100.00
42601;BME280;28229;48.856;9.088;2023-08-30T02:15:26;97310.97;;;12.13;100.00
42601;BME280;28229;48.856;9.088;2023-08-30T02:17:53;97309.63;;;12.11;100.00
42601;BME280;28229;48.856;9.088;2023-08-30T02:20:19;97313.06;;;12.11;100.00
42601;BME280;28229;48.856;9.088;2023-08-30T02:22:46;97317.13;;;12.02;100.00
42601;BME280;28229;48.856;9.088;2023-08-30T02:25:12;97316.16;;;12.08;100.00
42601;BME280;28229;48.856;9.088;2023-08-30T02:27:38;97314.25;;;12.04;100.00
42601;BME280;28229;48.856;9.088;2023-08-30T02:30:05;97318.25;;;12.06;100.00
42601;BME280;28229;48.856;9.088;2023-08-30T02:32:31;97318.25;;;12.06;100.00
42601;BME280;28229;48.856;9.088;2023-08-30T02:34:57;97318.59;;;11.93;100.00
42601;BME280;28229;48.856;9.088;2023-08-30T02:37:24;97321.13;;;11.88;100.00
42601;BME280;28229;48.856;9.088;2023-08-30T02:39:50;97324.00;;;11.86;100.00
42601;BME280;28229;48.856;9.088;2023-08-30T02:42:17;97329.19;;;11.81;100.00
42601;BME280;28229;48.856;9.088;2023-08-30T02:44:43;97320.78;;;11.84;100.00
42601;BME280;28229;48.856;9.088;2023-08-30T02:47:09;97322.66;;;11.84;100.00
42601;BME280;28229;48.856;9.088;2023-08-30T02:49:35;97327.84;;;11.78;100.00
42601;BME280;28229;48.856;9.088;2023-08-30T02:52:02;97325.03;;;11.68;100.00
42601;BME280;28229;48.856;9.088;2023-08-30T02:54:28;97323.97;;;11.69;100.00
42601;BME280;28229;48.856;9.088;2023-08-30T02:56:54;97317.50;;;11.60;100.00
42601;BME280;28229;48.856;9.088;2023-08-30T02:59:21;97318.56;;;11.59;100.00
42601;BME280;28229;48.856;9.088;2023-08-30T03:01:47;97319.75;;;11.68;100.00
42601;BME280;28229;48.856;9.088;2023-08-30T03:04:15;97309.13;;;11.63;100.00
42601;BME280;28229;48.856;9.088;2023-08-30T03:06:42;97317.03;;;11.63;100.00
42601;BME280;28229;48.856;9.088;2023-08-30T03:09:08;97321.84;;;11.66;100.00
42601;BME280;28229;48.856;9.088;2023-08-30T03:11:36;97308.56;;;11.61;100.00
42601;BME280;28229;48.856;9.088;2023-08-30T03:14:05;97316.81;;;11.65;100.00
42601;BME280;28229;48.856;9.088;2023-08-30T03:16:31;97305.94;;;11.61;100.00
42601;BME280;28229;48.856;9.088;2023-08-30T03:18:57;97305.47;;;11.64;100.00
42601;BME280;28229;48.856;9.088;2023-08-30T03:21:24;97303.78;;;11.58;100.00
42601;BME280;28229;48.856;9.088;2023-08-30T03:23:50;97304.97;;;11.67;100.00
42601;BME280;28229;48.856;9.088;2023-08-30T03:26:16;97310.78;;;11.69;100.00
42601;BME280;28229;48.856;9.088;2023-08-30T03:28:43;97296.13;;;11.73;100.00
42601;BME280;28229;48.856;9.088;2023-08-30T03:31:18;97300.97;;;11.81;100.00
42601;BME280;28229;48.856;9.088;2023-08-30T03:33:46;97293.03;;;11.76;100.00
42601;BME280;28229;48.856;9.088;2023-08-30T03:36:15;97300.25;;;11.69;100.00
42601;BME280;28229;48.856;9.088;2023-08-30T03:38:42;97298.44;;;11.70;100.00
42601;BME280;28229;48.856;9.088;2023-08-30T03:41:10;97298.59;;;11.80;100.00
42601;BME280;28229;48.856;9.088;2023-08-30T03:43:37;97303.56;;;11.76;100.00
42601;BME280;28229;48.856;9.088;2023-08-30T03:46:03;97290.44;;;11.81;100.00
42601;BME280;28229;48.856;9.088;2023-08-30T03:48:30;97296.84;;;11.86;100.00
42601;BME280;28229;48.856;9.088;2023-08-30T03:50:57;97302.22;;;11.91;100.00
42601;BME280;28229;48.856;9.088;2023-08-30T03:53:24;97304.34;;;11.94;100.00
42601;BME280;28229;48.856;9.088;2023-08-30T03:55:50;97299.09;;;11.94;100.00
42601;BME280;28229;48.856;9.088;2023-08-30T03:58:18;97296.22;;;11.95;100.00
42601;BME280;28229;48.856;9.088;2023-08-30T04:00:45;97294.31;;;11.91;100.00
42601;BME280;28229;48.856;9.088;2023-08-30T04:03:13;97295.50;;;12.00;100.00
42601;BME280;28229;48.856;9.088;2023-08-30T04:05:40;97301.78;;;11.99;100.00
42601;BME280;28229;48.856;9.088;2023-08-30T04:08:07;97301.97;;;11.92;100.00
42601;BME280;28229;48.856;9.088;2023-08-30T04:10:37;97304.34;;;11.94;100.00
42601;BME280;28229;48.856;9.088;2023-08-30T04:13:04;97304.19;;;12.00;100.00
42601;BME280;28229;48.856;9.088;2023-08-30T04:15:35;97296.06;;;12.02;100.00
42601;BME280;28229;48.856;9.088;2023-08-30T04:18:02;97300.59;;;11.90;100.00
42601;BME280;28229;48.856;9.088;2023-08-30T04:20:29;97298.06;;;11.95;100.00
42601;BME280;28229;48.856;9.088;2023-08-30T04:22:55;97294.31;;;11.91;100.00
42601;BME280;28229;48.856;9.088;2023-08-30T04:25:23;97303.56;;;11.93;100.00
42601;BME280;28229;48.856;9.088;2023-08-30T04:27:49;97303.94;;;11.85;100.00
42601;BME280;28229;48.856;9.088;2023-08-30T04:30:16;97296.53;;;11.99;100.00
42601;BME280;28229;48.856;9.088;2023-08-30T04:32:43;97298.59;;;11.97;100.00
42601;BME280;28229;48.856;9.088;2023-08-30T04:35:09;97294.69;;;11.99;100.00
42601;BME280;28229;48.856;9.088;2023-08-30T04:37:35;97301.31;;;12.02;100.00
42601;BME280;28229;48.856;9.088;2023-08-30T04:40:02;97304.66;;;11.97;100.00
42601;BME280;28229;48.856;9.088;2023-08-30T04:42:29;97309.84;;;11.75;100.00
42601;BME280;28229;48.856;9.088;2023-08-30T04:44:55;97309.94;;;11.80;100.00
42601;BME280;28229;48.856;9.088;2023-08-30T04:47:22;97306.56;;;11.85;100.00
42601;BME280;28229;48.856;9.088;2023-08-30T04:49:52;97303.31;;;11.95;100.00
42601;BME280;28229;48.856;9.088;2023-08-30T04:52:19;97301.88;;;12.04;100.00
42601;BME280;28229;48.856;9.088;2023-08-30T04:54:45;97307.78;;;12.11;100.00
42601;BME280;28229;48.856;9.088;2023-08-30T04:57:12;97304.13;;;12.12;100.00
42601;BME280;28229;48.856;9.088;2023-08-30T04:59:40;97300.69;;;11.95;100.00
42601;BME280;28229;48.856;9.088;2023-08-30T05:02:07;97302.78;;;11.93;100.00
42601;BME280;28229;48.856;9.088;2023-08-30T05:04:39;97299.16;;;11.99;100.00
42601;BME280;28229;48.856;9.088;2023-08-30T05:07:06;97304.34;;;12.11;100.00
42601;BME280;28229;48.856;9.088;2023-08-30T05:09:33;97303.06;;;12.13;100.00
42601;BME280;28229;48.856;9.088;2023-08-30T05:12:01;97307.16;;;12.04;100.00
42601;BME280;28229;48.856;9.088;2023-08-30T05:14:28;97305.78;;;12.18;100.00
42601;BME280;28229;48.856;9.088;2023-08-30T05:16:54;97305.13;;;12.28;100.00
42601;BME280;28229;48.856;9.088;2023-08-30T05:19:21;97308.09;;;12.15;100.00
42601;BME280;28229;48.856;9.088;2023-08-30T05:21:49;97305.13;;;12.28;100.00
42601;BME280;28229;48.856;9.088;2023-08-30T05:24:21;97302.53;;;12.33;100.00
42601;BME280;28229;48.856;9.088;2023-08-30T05:26:47;97297.09;;;12.40;100.00
42601;BME280;28229;48.856;9.088;2023-08-30T05:29:15;97297.69;;;12.47;100.00
42601;BME280;28229;48.856;9.088;2023-08-30T05:31:43;97297.84;;;12.57;100.00
42601;BME280;28229;48.856;9.088;2023-08-30T05:34:36;97296.53;;;12.60;100.00
42601;BME280;28229;48.856;9.088;2023-08-30T05:37:13;97296.81;;;12.59;100.00
42601;BME280;28229;48.856;9.088;2023-08-30T05:40:18;97295.75;;;12.60;100.00
42601;BME280;28229;48.856;9.088;2023-08-30T05:42:44;97296.50;;;12.55;100.00
42601;BME280;28229;48.856;9.088;2023-08-30T05:45:11;97302.97;;;12.47;100.00
42601;BME280;28229;48.856;9.088;2023-08-30T05:47:37;97302.97;;;12.47;100.00
42601;BME280;28229;48.856;9.088;2023-08-30T05:50:03;97303.53;;;12.49;100.00
42601;BME280;28229;48.856;9.088;2023-08-30T05:52:30;97303.28;;;12.51;100.00
42601;BME280;28229;48.856;9.088;2023-08-30T05:54:56;97307.41;;;12.64;100.00
42601;BME280;28229;48.856;9.088;2023-08-30T05:57:22;97299.53;;;12.69;100.00
42601;BME280;28229;48.856;9.088;2023-08-30T05:59:49;97305.94;;;12.73;100.00
42601;BME280;28229;48.856;9.088;2023-08-30T06:02:18;97300.97;;;12.76;100.00
42601;BME280;28229;48.856;9.088;2023-08-30T06:04:44;97303.38;;;12.78;100.00
42601;BME280;28229;48.856;9.088;2023-08-30T06:07:10;97304.41;;;12.77;100.00
42601;BME280;28229;48.856;9.088;2023-08-30T06:09:37;97307.34;;;12.81;100.00
42601;BME280;28229;48.856;9.088;2023-08-30T06:12:03;97307.78;;;12.94;100.00
42601;BME280;28229;48.856;9.088;2023-08-30T06:14:30;97317.44;;;13.11;100.00
42601;BME280;28229;48.856;9.088;2023-08-30T06:16:56;97309.63;;;13.21;100.00
42601;BME280;28229;48.856;9.088;2023-08-30T06:19:22;97310.31;;;13.33;100.00
42601;BME280;28229;48.856;9.088;2023-08-30T06:21:48;97321.22;;;13.42;100.00
42601;BME280;28229;48.856;9.088;2023-08-30T06:24:14;97314.69;;;13.50;100.00
42601;BME280;28229;48.856;9.088;2023-08-30T06:26:40;97313.16;;;13.59;100.00
42601;BME280;28229;48.856;9.088;2023-08-30T06:29:06;97314.81;;;13.65;100.00
42601;BME280;28229;48.856;9.088;2023-08-30T06:31:33;97305.88;;;13.71;100.00
42601;BME280;28229;48.856;9.088;2023-08-30T06:33:59;97313.84;;;13.77;100.00
42601;BME280;28229;48.856;9.088;2023-08-30T06:36:25;97302.78;;;13.85;100.00
42601;BME280;28229;48.856;9.088;2023-08-30T06:38:51;97307.53;;;13.83;100.00
42601;BME280;28229;48.856;9.088;2023-08-30T06:41:18;97302.78;;;13.85;100.00
42601;BME280;28229;48.856;9.088;2023-08-30T06:43:44;97298.56;;;13.84;100.00
42601;BME280;28229;48.856;9.088;2023-08-30T06:46:10;97299.00;;;13.76;100.00
42601;BME280;28229;48.856;9.088;2023-08-30T06:48:36;97295.28;;;13.71;100.00
42601;BME280;28229;48.856;9.088;2023-08-30T06:51:02;97300.28;;;13.68;100.00
42601;BME280;28229;48.856;9.088;2023-08-30T06:53:29;97300.28;;;13.68;100.00
42601;BME280;28229;48.856;9.088;2023-08-30T06:55:59;97293.38;;;13.67;100.00
42601;BME280;28229;48.856;9.088;2023-08-30T06:58:26;97304.16;;;13.55;100.00
42601;BME280;28229;48.856;9.088;2023-08-30T07:00:52;97298.81;;;13.50;100.00
42601;BME280;28229;48.856;9.088;2023-08-30T07:03:19;97294.03;;;13.47;100.00
42601;BME280;28229;48.856;9.088;2023-08-30T07:05:45;97288.75;;;13.47;100.00
42601;BME280;28229;48.856;9.088;2023-08-30T07:08:15;97290.56;;;13.41;100.00
42601;BME280;28229;48.856;9.088;2023-08-30T07:10:42;97296.88;;;13.40;100.00
42601;BME280;28229;48.856;9.088;2023-08-30T07:13:08;97292.94;;;13.43;100.00
42601;BME280;28229;48.856;9.088;2023-08-30T07:15:38;97292.22;;;13.52;100.00
42601;BME280;28229;48.856;9.088;2023-08-30T07:18:06;97292.56;;;13.61;100.00
42601;BME280;28229;48.856;9.088;2023-08-30T07:20:33;97296.53;;;13.59;100.00
42601;BME280;28229;48.856;9.088;2023-08-30T07:22:59;97296.53;;;13.59;100.00
42601;BME280;28229;48.856;9.088;2023-08-30T07:25:25;97295.00;;;13.68;100.00
42601;BME280;28229;48.856;9.088;2023-08-30T07:27:55;97297.69;;;13.73;100.00
42601;BME280;28229;48.856;9.088;2023-08-30T07:30:21;97296.91;;;13.78;99.73
42601;BME280;28229;48.856;9.088;2023-08-30T07:32:48;97296.66;;;13.79;100.00
42601;BME280;28229;48.856;9.088;2023-08-30T07:35:14;97296.44;;;13.86;100.00
42601;BME280;28229;48.856;9.088;2023-08-30T07:37:40;97294.91;;;13.95;99.33
42601;BME280;28229;48.856;9.088;2023-08-30T07:40:07;97296.28;;;13.98;99.40
42601;BME280;28229;48.856;9.088;2023-08-30T07:42:33;97303.47;;;14.07;99.69
42601;BME280;28229;48.856;9.088;2023-08-30T07:44:59;97298.22;;;14.13;94.53
42601;BME280;28229;48.856;9.088;2023-08-30T07:47:25;97309.44;;;14.30;93.72
42601;BME280;28229;48.856;9.088;2023-08-30T07:49:51;97306.78;;;14.30;94.10
42601;BME280;28229;48.856;9.088;2023-08-30T07:52:17;97303.06;;;14.31;92.18
42601;BME280;28229;48.856;9.088;2023-08-30T07:54:44;97298.03;;;14.24;92.06
42601;BME280;28229;48.856;9.088;2023-08-30T07:57:10;97303.59;;;14.28;92.93
42601;BME280;28229;48.856;9.088;2023-08-30T07:59:36;97297.78;;;14.31;93.22
42601;BME280;28229;48.856;9.088;2023-08-30T08:02:04;97299.97;;;14.44;94.43
42601;BME280;28229;48.856;9.088;2023-08-30T08:04:32;97288.13;;;14.57;94.35
42601;BME280;28229;48.856;9.088;2023-08-30T08:06:59;97288.44;;;14.66;93.71
42601;BME280;28229;48.856;9.088;2023-08-30T08:09:25;97287.44;;;14.82;92.86
42601;BME280;28229;48.856;9.088;2023-08-30T08:11:51;97289.03;;;14.83;93.23
42601;BME280;28229;48.856;9.088;2023-08-30T08:14:17;97289.84;;;14.89;93.66
42601;BME280;28229;48.856;9.088;2023-08-30T08:16:44;97293.56;;;14.98;92.99
42601;BME280;28229;48.856;9.088;2023-08-30T08:19:10;97301.56;;;15.09;93.10
42601;BME280;28229;48.856;9.088;2023-08-30T08:21:38;97302.09;;;15.16;92.57
42601;BME280;28229;48.856;9.088;2023-08-30T08:24:04;97302.91;;;15.27;92.50
42601;BME280;28229;48.856;9.088;2023-08-30T08:26:31;97305.06;;;15.35;89.88
42601;BME280;28229;48.856;9.088;2023-08-30T08:28:57;97294.44;;;15.45;90.30
42601;BME280;28229;48.856;9.088;2023-08-30T08:31:23;97297.66;;;15.47;88.46
42601;BME280;28229;48.856;9.088;2023-08-30T08:33:51;97297.63;;;15.63;86.62
42601;BME280;28229;48.856;9.088;2023-08-30T08:36:21;97300.84;;;15.75;85.58
42601;BME280;28229;48.856;9.088;2023-08-30T08:38:47;97305.34;;;15.69;84.97
42601;BME280;28229;48.856;9.088;2023-08-30T08:41:14;97306.69;;;15.77;85.03
42601;BME280;28229;48.856;9.088;2023-08-30T08:43:42;97304.56;;;15.79;84.85
42601;BME280;28229;48.856;9.088;2023-08-30T08:46:09;97298.72;;;15.77;85.13
42601;BME280;28229;48.856;9.088;2023-08-30T08:48:40;97302.44;;;15.91;85.72
42601;BME280;28229;48.856;9.088;2023-08-30T08:51:06;97300.53;;;16.23;85.28
42601;BME280;28229;48.856;9.088;2023-08-30T08:53:33;97302.31;;;16.43;83.25
42601;BME280;28229;48.856;9.088;2023-08-30T08:56:00;97298.53;;;16.64;79.90
42601;BME280;28229;48.856;9.088;2023-08-30T08:58:28;97295.31;;;16.78;75.53
42601;BME280;28229;48.856;9.088;2023-08-30T09:00:54;97295.31;;;16.78;75.41
42601;BME280;28229;48.856;9.088;2023-08-30T09:03:21;97300.34;;;16.79;76.79
42601;BME280;28229;48.856;9.088;2023-08-30T09:05:48;97299.78;;;16.92;74.41
42601;BME280;28229;48.856;9.088;2023-08-30T09:08:15;97303.97;;;16.99;72.41
42601;BME280;28229;48.856;9.088;2023-08-30T09:10:42;97297.81;;;17.08;72.42
42601;BME280;28229;48.856;9.088;2023-08-30T09:13:09;97301.53;;;17.07;73.14
42601;BME280;28229;48.856;9.088;2023-08-30T09:15:35;97293.28;;;17.14;74.29
42601;BME280;28229;48.856;9.088;2023-08-30T09:18:04;97295.34;;;17.22;73.11
42601;BME280;28229;48.856;9.088;2023-08-30T09:20:30;97298.69;;;17.43;71.47
42601;BME280;28229;48.856;9.088;2023-08-30T09:22:56;97299.75;;;17.42;70.69
42601;BME280;28229;48.856;9.088;2023-08-30T09:25:25;97308.75;;;17.46;71.48
42601;BME280;28229;48.856;9.088;2023-08-30T09:27:56;97299.06;;;17.61;71.79
42601;BME280;28229;48.856;9.088;2023-08-30T09:30:23;97304.63;;;17.64;69.98
42601;BME280;28229;48.856;9.088;2023-08-30T09:32:49;97294.56;;;17.61;70.35
42601;BME280;28229;48.856;9.088;2023-08-30T09:35:16;97298.84;;;17.92;70.74
42601;BME280;28229;48.856;9.088;2023-08-30T09:37:44;97296.38;;;18.24;70.52
42601;BME280;28229;48.856;9.088;2023-08-30T09:40:11;97294.78;;;18.23;68.78
42601;BME280;28229;48.856;9.088;2023-08-30T09:42:41;97283.38;;;18.47;67.35
42601;BME280;28229;48.856;9.088;2023-08-30T09:45:22;97281.97;;;18.74;67.81
42601;BME280;28229;48.856;9.088;2023-08-30T09:47:49;97278.22;;;18.99;66.99
42601;BME280;28229;48.856;9.088;2023-08-30T09:50:20;97283.47;;;19.23;65.08
42601;BME280;28229;48.856;9.088;2023-08-30T09:52:48;97282.00;;;19.50;64.55
42601;BME280;28229;48.856;9.088;2023-08-30T09:55:15;97281.50;;;19.48;59.90
42601;BME280;28229;48.856;9.088;2023-08-30T09:57:42;97295.88;;;19.66;59.32
42601;BME280;28229;48.856;9.088;2023-08-30T10:00:11;97291.63;;;19.84;61.69
42601;BME280;28229;48.856;9.088;2023-08-30T10:02:41;97291.38;;;19.99;60.59
42601;BME280;28229;48.856;9.088;2023-08-30T10:05:10;97281.06;;;19.92;57.87
42601;BME280;28229;48.856;9.088;2023-08-30T10:07:37;97279.78;;;19.90;58.81
42601;BME280;28229;48.856;9.088;2023-08-30T10:10:03;97281.50;;;20.13;61.12
42601;BME280;28229;48.856;9.088;2023-08-30T10:12:33;97280.59;;;20.32;57.64
42601;BME280;28229;48.856;9.088;2023-08-30T10:14:59;97279.81;;;20.31;54.43
42601;BME280;28229;48.856;9.088;2023-08-30T10:17:32;97274.50;;;20.45;55.61
42601;BME280;28229;48.856;9.088;2023-08-30T10:19:59;97267.78;;;20.34;53.59
42601;BME280;28229;48.856;9.088;2023-08-30T10:22:28;97252.44;;;20.53;55.06
42601;BME280;28229;48.856;9.088;2023-08-30T10:24:58;97250.09;;;20.88;54.78
42601;BME280;28229;48.856;9.088;2023-08-30T10:27:26;97251.97;;;21.24;54.06
42601;BME280;28229;48.856;9.088;2023-08-30T10:29:53;97250.53;;;21.41;54.88
42601;BME280;28229;48.856;9.088;2023-08-30T10:32:20;97247.25;;;21.66;55.29
42601;BME280;28229;48.856;9.088;2023-08-30T10:34:51;97240.84;;;21.76;52.67
42601;BME280;28229;48.856;9.088;2023-08-30T10:37:25;97237.63;;;21.65;52.40
42601;BME280;28229;48.856;9.088;2023-08-30T10:39:52;97234.53;;;21.72;52.63
42601;BME280;28229;48.856;9.088;2023-08-30T10:42:22;97232.59;;;21.95;51.23
42601;BME280;28229;48.856;9.088;2023-08-30T10:44:56;97235.19;;;22.09;51.65
42601;BME280;28229;48.856;9.088;2023-08-30T10:47:29;97238.81;;;22.13;51.36
42601;BME280;28229;48.856;9.088;2023-08-30T10:49:58;97232.06;;;22.16;52.79
42601;BME280;28229;48.856;9.088;2023-08-30T10:52:25;97236.09;;;22.04;51.13
42601;BME280;28229;48.856;9.088;2023-08-30T10:54:52;97230.22;;;21.94;49.79
42601;BME280;28229;48.856;9.088;2023-08-30T10:57:24;97230.59;;;22.10;51.89
42601;BME280;28229;48.856;9.088;2023-08-30T11:00:23;97221.06;;;21.86;51.04
42601;BME280;28229;48.856;9.088;2023-08-30T11:02:51;97235.09;;;21.38;53.11
42601;BME280;28229;48.856;9.088;2023-08-30T11:05:22;97230.31;;;20.89;55.98
42601;BME280;28229;48.856;9.088;2023-08-30T11:07:49;97241.75;;;20.26;58.06
42601;BME280;28229;48.856;9.088;2023-08-30T11:10:17;97243.09;;;19.95;58.53
42601;BME280;28229;48.856;9.088;2023-08-30T11:12:45;97244.69;;;19.83;58.79
42601;BME280;28229;48.856;9.088;2023-08-30T11:15:12;97250.72;;;19.55;59.67
42601;BME280;28229;48.856;9.088;2023-08-30T11:17:42;97243.66;;;19.46;59.91
42601;BME280;28229;48.856;9.088;2023-08-30T11:20:13;97247.44;;;19.26;60.78
42601;BME280;28229;48.856;9.088;2023-08-30T11:22:45;97242.09;;;19.26;59.93
42601;BME280;28229;48.856;9.088;2023-08-30T11:25:13;97238.44;;;19.21;60.34
42601;BME280;28229;48.856;9.088;2023-08-30T11:27:40;97237.72;;;19.16;60.81
42601;BME280;28229;48.856;9.088;2023-08-30T11:30:07;97237.50;;;19.12;61.89
42601;BME280;28229;48.856;9.088;2023-08-30T11:32:35;97245.78;;;19.11;63.44
42601;BME280;28229;48.856;9.088;2023-08-30T11:35:02;97239.38;;;19.12;64.22
42601;BME280;28229;48.856;9.088;2023-08-30T11:37:29;97237.00;;;19.10;65.41
42601;BME280;28229;48.856;9.088;2023-08-30T11:39:56;97242.13;;;19.07;65.54
42601;BME280;28229;48.856;9.088;2023-08-30T11:42:23;97240.63;;;19.00;67.76
42601;BME280;28229;48.856;9.088;2023-08-30T11:44:50;97237.53;;;18.93;68.58
42601;BME280;28229;48.856;9.088;2023-08-30T11:47:18;97242.13;;;18.88;69.19
42601;BME280;28229;48.856;9.088;2023-08-30T11:49:47;97243.03;;;18.78;68.99
42601;BME280;28229;48.856;9.088;2023-08-30T11:52:14;97240.03;;;18.60;71.71
42601;BME280;28229;48.856;9.088;2023-08-30T11:54:40;97244.09;;;18.34;72.80
42601;BME280;28229;48.856;9.088;2023-08-30T11:57:08;97245.69;;;17.81;77.21
42601;BME280;28229;48.856;9.088;2023-08-30T11:59:35;97243.72;;;17.63;80.03
42601;BME280;28229;48.856;9.088;2023-08-30T12:02:03;97247.88;;;17.05;83.90
42601;BME280;28229;48.856;9.088;2023-08-30T12:04:30;97235.03;;;16.73;83.01
42601;BME280;28229;48.856;9.088;2023-08-30T12:06:57;97231.59;;;16.72;86.29
42601;BME280;28229;48.856;9.088;2023-08-30T12:09:31;97232.72;;;16.56;87.02
42601;BME280;28229;48.856;9.088;2023-08-30T12:12:10;97230.41;;;16.34;86.69
42601;BME280;28229;48.856;9.088;2023-08-30T12:14:39;97232.06;;;16.25;87.00
42601;BME280;28229;48.856;9.088;2023-08-30T12:17:08;97228.63;;;16.19;91.38
42601;BME280;28229;48.856;9.088;2023-08-30T12:19:34;97232.88;;;16.15;92.50
42601;BME280;28229;48.856;9.088;2023-08-30T12:22:04;97240.03;;;16.09;92.44
42601;BME280;28229;48.856;9.088;2023-08-30T12:24:43;97230.50;;;16.08;92.13
42601;BME280;28229;48.856;9.088;2023-08-30T12:27:13;97236.09;;;16.07;93.80
42601;BME280;28229;48.856;9.088;2023-08-30T12:29:40;97226.00;;;16.04;92.28
42601;BME280;28229;48.856;9.088;2023-08-30T12:32:07;97221.72;;;16.13;91.96
42601;BME280;28229;48.856;9.088;2023-08-30T12:34:34;97215.59;;;16.28;90.29
42601;BME280;28229;48.856;9.088;2023-08-30T12:37:00;97208.88;;;16.46;88.99
42601;BME280;28229;48.856;9.088;2023-08-30T12:39:28;97213.78;;;16.68;88.46
42601;BME280;28229;48.856;9.088;2023-08-30T12:41:54;97215.66;;;16.67;85.83
42601;BME280;28229;48.856;9.088;2023-08-30T12:44:21;97202.81;;;16.90;85.80
42601;BME280;28229;48.856;9.088;2023-08-30T12:46:47;97202.94;;;17.09;84.19
42601;BME280;28229;48.856;9.088;2023-08-30T12:49:13;97193.69;;;17.01;79.72
42601;BME280;28229;48.856;9.088;2023-08-30T12:51:40;97198.84;;;17.22;79.55
42601;BME280;28229;48.856;9.088;2023-08-30T12:54:06;97199.94;;;17.50;79.84
42601;BME280;28229;48.856;9.088;2023-08-30T12:56:32;97198.56;;;17.58;78.11
42601;BME280;28229;48.856;9.088;2023-08-30T12:58:58;97202.28;;;17.57;76.27
42601;BME280;28229;48.856;9.088;2023-08-30T13:01:24;97201.97;;;17.63;75.02